Time;durP1;ratioP1;P1;durP2;ratioP2;P2;SDS_P1;SDS_P2;PMS_P1;PMS_P2;Temp;Humidity;BMP_temperature;BMP_pressure;BME280_temperature;BME280_humidity;BME280_pressure;Samples;Min_cycle;Max_cycle;Signal;HPM_P1;HPM_P2
2021/12/08 00:00:30;;;;;;;11.40;5.82;;;-15.80;99.90;;;;;;4841363;29;20418;-84
2021/12/08 00:03:00;;;;;;;12.02;5.45;;;-15.70;99.90;;;;;;4841235;29;20425;-85
2021/12/08 00:05:28;;;;;;;12.80;5.80;;;-15.70;99.90;;;;;;4840313;29;20491;-85
2021/12/08 00:07:56;;;;;;;13.40;6.03;;;-15.60;99.90;;;;;;4771467;29;2071890;-85
2021/12/08 00:13:07;;;;;;;12.23;5.60;;;-15.80;99.90;;;;;;4841831;29;20402;-86
2021/12/08 00:15:44;;;;;;;13.68;5.95;;;-15.80;99.90;;;;;;4841815;29;20406;-85
2021/12/08 00:18:15;;;;;;;13.13;6.35;;;-15.90;99.90;;;;;;4841906;29;20405;-85
2021/12/08 00:20:48;;;;;;;14.77;6.40;;;-15.90;99.90;;;;;;4841674;29;20731;-85
2021/12/08 00:23:16;;;;;;;13.00;5.78;;;-15.90;99.90;;;;;;4841505;29;20430;-85
2021/12/08 00:25:44;;;;;;;13.13;5.82;;;-16.00;99.90;;;;;;4840511;29;20409;-84
2021/12/08 00:28:13;;;;;;;12.23;6.10;;;-16.00;99.90;;;;;;4841641;29;20410;-85
2021/12/08 00:30:45;;;;;;;12.13;5.65;;;-16.00;99.90;;;;;;4841401;29;20811;-86
2021/12/08 00:33:13;;;;;;;10.52;5.38;;;-16.10;99.90;;;;;;4841506;29;20406;-85
2021/12/08 00:35:41;;;;;;;12.60;5.60;;;-16.10;99.90;;;;;;4841241;29;20410;-84
2021/12/08 00:38:09;;;;;;;11.33;5.20;;;-16.10;99.90;;;;;;4855456;29;20494;-85
2021/12/08 00:40:39;;;;;;;11.48;4.90;;;-16.10;99.90;;;;;;4841343;29;20464;-85
2021/12/08 00:43:07;;;;;;;12.95;5.57;;;-16.10;99.90;;;;;;4841530;29;20425;-85
2021/12/08 00:45:34;;;;;;;12.73;5.40;;;-16.10;99.90;;;;;;4841306;29;20457;-85
2021/12/08 00:48:04;;;;;;;13.73;5.85;;;-16.10;99.90;;;;;;4841279;29;20744;-85
2021/12/08 00:50:34;;;;;;;15.05;6.47;;;-16.10;99.90;;;;;;4841368;29;20771;-86
2021/12/08 00:53:02;;;;;;;11.70;5.55;;;-16.20;99.90;;;;;;4841273;29;20410;-84
2021/12/08 00:55:30;;;;;;;12.87;5.63;;;-16.20;99.90;;;;;;4841324;29;20454;-85
2021/12/08 00:57:57;;;;;;;13.32;5.50;;;-16.20;99.90;;;;;;4841161;29;20885;-84
2021/12/08 01:00:29;;;;;;;11.38;5.82;;;-16.10;99.90;;;;;;4840990;29;20410;-85
2021/12/08 01:02:57;;;;;;;11.35;5.82;;;-16.10;99.90;;;;;;4841196;29;20807;-86
2021/12/08 01:05:38;;;;;;;12.13;5.55;;;-16.00;99.90;;;;;;4840969;29;20591;-85
2021/12/08 01:08:07;;;;;;;10.40;5.03;;;-16.00;99.90;;;;;;4840676;29;20414;-84
2021/12/08 01:10:37;;;;;;;11.25;5.72;;;-15.90;99.90;;;;;;4840356;29;20430;-86
2021/12/08 01:13:07;;;;;;;12.27;5.35;;;-16.00;99.90;;;;;;4840883;29;20489;-84
2021/12/08 01:15:37;;;;;;;10.52;4.80;;;-15.90;99.90;;;;;;4855109;29;20447;-85
2021/12/08 01:18:05;;;;;;;10.35;4.80;;;-16.00;99.90;;;;;;4840757;29;20406;-85
2021/12/08 01:20:34;;;;;;;10.60;4.70;;;-15.80;99.90;;;;;;4840914;29;20414;-85
2021/12/08 01:23:02;;;;;;;10.35;4.70;;;-15.90;99.90;;;;;;4840620;29;20478;-84
2021/12/08 01:25:29;;;;;;;9.77;4.60;;;-15.90;99.90;;;;;;4840791;29;20405;-84
2021/12/08 01:27:57;;;;;;;10.77;4.50;;;-15.90;99.90;;;;;;4840858;29;20466;-85
2021/12/08 01:30:25;;;;;;;9.40;4.35;;;-15.90;99.90;;;;;;4840751;29;20402;-85
2021/12/08 01:32:58;;;;;;;9.50;4.20;;;-15.70;99.90;;;;;;4840793;29;20410;-85
2021/12/08 01:35:26;;;;;;;8.27;4.38;;;-15.80;99.90;;;;;;4840836;29;20897;-83
2021/12/08 01:37:54;;;;;;;9.13;4.68;;;-15.70;99.90;;;;;;4839374;29;20415;-84
2021/12/08 01:40:21;;;;;;;8.18;4.00;;;-15.70;99.90;;;;;;4840855;29;20418;-86
2021/12/08 01:42:52;;;;;;;9.60;4.20;;;-15.70;99.90;;;;;;4840822;29;20507;-86
2021/12/08 01:48:12;;;;;;;9.33;3.67;;;-15.90;99.90;;;;;;4840626;29;20836;-85
2021/12/08 01:50:43;;;;;;;8.23;3.67;;;-16.00;99.90;;;;;;4840708;29;20402;-83
2021/12/08 01:53:11;;;;;;;7.72;3.72;;;-16.10;99.90;;;;;;4840582;29;20519;-84
2021/12/08 01:55:40;;;;;;;6.82;3.53;;;-16.20;99.90;;;;;;4840641;29;20434;-84
2021/12/08 01:58:10;;;;;;;8.60;3.70;;;-16.10;99.90;;;;;;4841198;29;20466;-85
2021/12/08 02:00:47;;;;;;;9.23;3.95;;;-16.10;99.90;;;;;;4840511;29;20811;-84
2021/12/08 02:03:16;;;;;;;7.53;3.92;;;-16.00;99.90;;;;;;4840583;29;20433;-85
2021/12/08 02:05:45;;;;;;;7.28;3.22;;;-16.00;99.90;;;;;;4840491;29;20439;-84
2021/12/08 02:08:13;;;;;;;8.32;3.53;;;-16.00;99.90;;;;;;4840403;29;20489;-85
2021/12/08 02:10:41;;;;;;;7.40;3.25;;;-15.90;99.90;;;;;;4841082;29;20410;-85
2021/12/08 02:13:10;;;;;;;7.43;3.43;;;-16.00;99.90;;;;;;4839354;29;20853;-85
2021/12/08 02:15:39;;;;;;;6.95;3.35;;;-15.90;99.90;;;;;;4839987;29;20442;-84
2021/12/08 02:18:11;;;;;;;7.03;3.53;;;-15.90;99.90;;;;;;4840577;29;20406;-84
2021/12/08 02:20:40;;;;;;;6.65;3.47;;;-15.90;99.90;;;;;;4841621;29;20407;-85
2021/12/08 02:23:08;;;;;;;8.63;3.83;;;-15.90;99.90;;;;;;4843536;29;20422;-84
2021/12/08 02:25:36;;;;;;;7.10;3.35;;;-16.00;99.90;;;;;;4843584;29;20410;-84
2021/12/08 02:28:07;;;;;;;7.38;3.05;;;-15.90;99.90;;;;;;4843531;29;20747;-84
2021/12/08 02:30:43;;;;;;;8.93;3.75;;;-15.90;99.90;;;;;;4843662;29;20440;-84
2021/12/08 02:49:50;;;;;;;7.68;3.15;;;-16.00;99.90;;;;;;4843633;29;20402;-84
2021/12/08 02:52:17;;;;;;;6.80;3.30;;;-16.00;99.90;;;;;;4843228;29;20414;-84
2021/12/08 02:54:51;;;;;;;7.15;2.88;;;-16.00;99.90;;;;;;4843284;29;20414;-86
2021/12/08 02:57:26;;;;;;;7.40;3.15;;;-15.90;99.90;;;;;;4843244;29;20411;-85
2021/12/08 02:59:54;;;;;;;6.68;3.03;;;-16.00;99.90;;;;;;4843328;29;20417;-85
2021/12/08 03:02:22;;;;;;;7.38;3.35;;;-16.00;99.90;;;;;;4843132;29;20796;-85
2021/12/08 03:04:50;;;;;;;7.15;3.00;;;-16.00;99.90;;;;;;4842084;29;20882;-85
2021/12/08 03:07:18;;;;;;;6.53;2.80;;;-15.90;99.90;;;;;;4842913;29;20398;-86
2021/12/08 03:09:45;;;;;;;6.40;3.00;;;-16.00;99.90;;;;;;4843111;29;20405;-84
2021/12/08 03:12:13;;;;;;;6.72;3.17;;;-16.00;99.90;;;;;;4841781;29;20929;-85
2021/12/08 03:14:40;;;;;;;6.10;3.00;;;-15.90;99.90;;;;;;4841625;29;20414;-85
2021/12/08 03:17:09;;;;;;;7.28;3.13;;;-15.90;99.90;;;;;;4842763;29;20435;-83
2021/12/08 03:19:37;;;;;;;6.43;2.80;;;-15.80;99.90;;;;;;4841721;29;20402;-85
2021/12/08 03:22:10;;;;;;;7.65;3.58;;;-16.00;99.90;;;;;;4842865;29;20406;-84
2021/12/08 03:24:43;;;;;;;7.30;3.03;;;-15.90;99.90;;;;;;4842698;29;20782;-83
2021/12/08 03:27:14;;;;;;;7.00;3.50;;;-15.80;99.90;;;;;;4842716;29;20409;-85
2021/12/08 03:32:26;;;;;;;6.22;3.00;;;-15.50;99.90;;;;;;4841793;29;20398;-84
2021/12/08 03:34:55;;;;;;;7.47;2.95;;;-15.50;99.90;;;;;;4842406;29;20421;-84
2021/12/08 03:37:38;;;;;;;5.75;2.80;;;-15.50;99.90;;;;;;4841733;29;20464;-83
2021/12/08 03:40:15;;;;;;;6.75;2.67;;;-15.60;99.90;;;;;;4842411;29;20442;-84
2021/12/08 03:42:44;;;;;;;5.45;2.72;;;-15.40;99.90;;;;;;4842260;29;20410;-84
2021/12/08 03:45:31;;;;;;;4.97;2.60;;;-15.60;99.90;;;;;;4842366;29;20483;-84
2021/12/08 03:48:03;;;;;;;6.05;2.67;;;-15.50;99.90;;;;;;4835875;29;20404;-84
2021/12/08 03:50:36;;;;;;;5.70;2.43;;;-15.50;99.90;;;;;;4824148;29;20412;-83
2021/12/08 03:53:05;;;;;;;6.03;2.60;;;-15.60;99.90;;;;;;4842196;29;20410;-84
2021/12/08 03:55:39;;;;;;;5.28;2.53;;;-15.50;99.90;;;;;;4842358;29;20418;-84
2021/12/08 03:58:06;;;;;;;4.55;2.42;;;-15.40;99.90;;;;;;4829158;29;20499;-85
2021/12/08 04:00:34;;;;;;;6.07;3.20;;;-15.20;99.90;;;;;;4824038;29;20780;-84
2021/12/08 04:03:04;;;;;;;5.22;2.40;;;-14.90;99.90;;;;;;4823856;29;20420;-85
2021/12/08 04:05:43;;;;;;;5.22;2.70;;;-14.90;99.90;;;;;;4823432;29;20415;-85
2021/12/08 04:08:18;;;;;;;7.35;3.33;;;-15.10;99.90;;;;;;4833870;29;20412;-85
2021/12/08 04:10:49;;;;;;;7.05;3.53;;;-15.20;99.90;;;;;;4823755;29;20400;-84
2021/12/08 04:13:23;;;;;;;10.25;4.55;;;-15.10;99.90;;;;;;4822618;29;20472;-85
2021/12/08 04:15:51;;;;;;;8.60;4.15;;;-15.10;99.90;;;;;;4822447;29;20416;-85
2021/12/08 04:18:18;;;;;;;10.57;4.47;;;-15.10;99.90;;;;;;4823710;29;20495;-86
2021/12/08 04:20:51;;;;;;;10.00;4.55;;;-15.00;99.90;;;;;;4823565;29;20408;-84
2021/12/08 04:23:21;;;;;;;16.02;6.32;;;-15.00;99.90;;;;;;4823604;29;20505;-84
2021/12/08 04:25:52;;;;;;;16.23;6.88;;;-15.10;99.90;;;;;;4823758;29;20407;-84
2021/12/08 04:28:26;;;;;;;10.75;4.88;;;-15.20;99.90;;;;;;4823620;29;20486;-85
2021/12/08 04:31:11;;;;;;;11.20;5.00;;;-15.20;99.90;;;;;;4823517;29;20441;-85
2021/12/08 04:33:39;;;;;;;13.88;6.03;;;-15.20;99.90;;;;;;4823504;29;20767;-85
2021/12/08 04:36:11;;;;;;;15.35;7.25;;;-15.10;99.90;;;;;;4827761;29;20410;-85
2021/12/08 04:38:43;;;;;;;20.77;9.77;;;-15.10;99.90;;;;;;4841560;29;20414;-85
2021/12/08 04:41:27;;;;;;;22.65;11.43;;;-15.00;99.90;;;;;;4841470;29;20410;-85
2021/12/08 04:44:10;;;;;;;23.65;11.38;;;-15.10;99.90;;;;;;4831863;29;20841;-84
2021/12/08 04:52:33;;;;;;;19.33;9.90;;;-15.10;99.90;;;;;;4838665;29;20478;-83
2021/12/08 05:06:36;;;;;;;21.03;9.70;;;-15.10;99.90;;;;;;4823095;29;20412;-83
2021/12/08 05:09:26;;;;;;;20.15;9.70;;;-14.90;99.90;;;;;;4830217;29;20913;-86
2021/12/08 05:11:58;;;;;;;19.70;9.88;;;-15.10;99.90;;;;;;4841050;29;20414;-84
2021/12/08 05:14:30;;;;;;;17.40;8.30;;;-14.90;99.90;;;;;;4841251;29;20402;-84
2021/12/08 05:17:04;;;;;;;19.52;9.27;;;-15.00;99.90;;;;;;4841104;29;20463;-85
2021/12/08 05:19:33;;;;;;;21.98;10.73;;;-15.10;99.90;;;;;;4824755;29;20420;-84
2021/12/08 05:22:08;;;;;;;16.88;7.90;;;-14.90;99.90;;;;;;4822890;29;20461;-86
2021/12/08 05:24:43;;;;;;;16.38;8.32;;;-14.90;99.90;;;;;;4822768;29;20424;-85
2021/12/08 05:27:21;;;;;;;18.10;8.60;;;-14.80;99.90;;;;;;4822740;29;20437;-84
2021/12/08 05:29:56;;;;;;;18.13;9.17;;;-14.80;99.90;;;;;;4822929;29;20407;-86
2021/12/08 05:32:24;;;;;;;20.77;9.93;;;-14.70;99.90;;;;;;4822887;29;20491;-84
2021/12/08 05:34:52;;;;;;;19.00;9.30;;;-14.70;99.90;;;;;;4822791;29;20408;-85
2021/12/08 05:37:23;;;;;;;20.08;9.73;;;-14.80;99.90;;;;;;4834280;29;20476;-86
2021/12/08 05:39:52;;;;;;;19.40;10.30;;;-14.70;99.90;;;;;;4840976;29;20417;-85
2021/12/08 05:42:33;;;;;;;20.10;10.05;;;-14.70;99.90;;;;;;4841003;29;20500;-85
2021/12/08 05:45:01;;;;;;;18.13;8.82;;;-14.70;99.90;;;;;;4840640;29;20485;-86
2021/12/08 05:47:31;;;;;;;18.42;9.35;;;-14.80;99.90;;;;;;4840916;29;20936;-86
2021/12/08 05:49:59;;;;;;;22.48;12.15;;;-14.70;99.90;;;;;;4840844;29;20413;-85
2021/12/08 05:52:27;;;;;;;19.10;9.48;;;-14.80;99.90;;;;;;4840871;29;21027;-85
2021/12/08 05:54:59;;;;;;;19.67;9.68;;;-14.60;99.90;;;;;;4840888;29;20433;-86
2021/12/08 05:57:32;;;;;;;22.08;8.93;;;-14.70;99.90;;;;;;4844413;29;20490;-85
2021/12/08 06:00:13;;;;;;;55.55;13.07;;;-14.60;99.90;;;;;;4844254;29;20498;-86
2021/12/08 06:02:44;;;;;;;23.02;8.98;;;-14.60;99.90;;;;;;4844000;29;20450;-86
2021/12/08 06:05:12;;;;;;;14.57;6.78;;;-14.60;99.90;;;;;;4843237;29;20898;-86
2021/12/08 06:07:40;;;;;;;14.80;6.73;;;-14.50;99.90;;;;;;4842162;29;20770;-84
2021/12/08 06:10:14;;;;;;;12.30;6.18;;;-14.50;99.90;;;;;;4843048;29;20948;-85
2021/12/08 06:12:42;;;;;;;13.60;6.80;;;-14.50;99.90;;;;;;4856683;29;20649;-85
2021/12/08 06:15:11;;;;;;;14.25;6.88;;;-14.60;99.90;;;;;;4842914;29;20414;-86
2021/12/08 06:17:39;;;;;;;15.23;7.63;;;-14.70;99.90;;;;;;4842839;29;20410;-85
2021/12/08 06:20:11;;;;;;;13.00;6.90;;;-14.40;99.90;;;;;;4842901;29;20406;-85
2021/12/08 06:22:41;;;;;;;11.68;6.32;;;-14.40;99.90;;;;;;4842935;29;20505;-86
2021/12/08 06:25:11;;;;;;;16.33;6.25;;;-14.30;99.90;;;;;;4842049;29;20944;-86
2021/12/08 06:27:40;;;;;;;13.65;6.70;;;-14.20;99.90;;;;;;4843253;29;20414;-85
2021/12/08 06:30:12;;;;;;;11.73;5.93;;;-14.20;99.90;;;;;;4843716;29;20406;-85
2021/12/08 06:32:40;;;;;;;13.48;6.25;;;-14.20;99.90;;;;;;4844038;29;20422;-86
2021/12/08 06:35:11;;;;;;;11.77;5.80;;;-14.10;99.90;;;;;;4840507;29;20414;-86
2021/12/08 06:37:42;;;;;;;9.60;4.72;;;-14.20;99.90;;;;;;4841821;29;20952;-86
2021/12/08 06:40:22;;;;;;;11.47;5.67;;;-14.20;99.90;;;;;;4839153;29;20501;-86
2021/12/08 06:42:54;;;;;;;11.13;5.18;;;-14.30;99.90;;;;;;4841689;29;20429;-86
2021/12/08 06:45:28;;;;;;;9.45;4.50;;;-14.20;99.90;;;;;;4825861;29;20439;-84
2021/12/08 06:47:58;;;;;;;10.48;5.15;;;-14.30;99.90;;;;;;4825096;29;20427;-86
2021/12/08 06:50:37;;;;;;;12.32;5.18;;;-13.90;99.90;;;;;;4832153;29;20406;-84
2021/12/08 06:53:05;;;;;;;10.30;5.22;;;-14.00;99.90;;;;;;4843396;29;20443;-86
2021/12/08 06:55:40;;;;;;;11.25;5.72;;;-14.00;99.90;;;;;;4843339;29;20462;-86
2021/12/08 06:58:14;;;;;;;10.50;5.10;;;-14.00;99.90;;;;;;4843320;29;20463;-85
2021/12/08 07:01:39;;;;;;;9.68;4.75;;;-13.90;99.90;;;;;;4843186;29;20432;-84
2021/12/08 07:07:14;;;;;;;9.02;4.50;;;-14.00;99.90;;;;;;4855890;29;20506;-86
2021/12/08 07:09:59;;;;;;;8.48;4.28;;;-13.90;99.90;;;;;;4843194;29;20394;-85
2021/12/08 07:12:33;;;;;;;10.48;5.65;;;-13.80;99.90;;;;;;4843190;29;20402;-86
2021/12/08 07:15:15;;;;;;;8.82;4.72;;;-13.90;99.90;;;;;;4842954;29;20406;-85
2021/12/08 07:17:50;;;;;;;9.88;5.18;;;-13.80;99.90;;;;;;4842671;29;20435;-85
2021/12/08 07:20:42;;;;;;;10.85;4.82;;;-13.70;99.90;;;;;;4842659;29;20463;-85
2021/12/08 07:23:14;;;;;;;10.20;5.25;;;-13.80;99.90;;;;;;4841672;29;20462;-85
2021/12/08 07:25:43;;;;;;;9.98;5.25;;;-13.60;99.90;;;;;;4842925;29;20418;-85
2021/12/08 07:28:13;;;;;;;9.00;4.60;;;-13.60;99.90;;;;;;4842900;29;20406;-86
2021/12/08 07:30:46;;;;;;;9.43;5.00;;;-13.50;99.90;;;;;;4842738;29;20463;-86
2021/12/08 07:33:14;;;;;;;10.18;4.90;;;-13.60;99.90;;;;;;4842587;29;20402;-86
2021/12/08 07:35:50;;;;;;;9.38;4.82;;;-13.50;99.90;;;;;;4842827;29;20460;-85
2021/12/08 07:38:22;;;;;;;9.55;4.72;;;-13.60;99.90;;;;;;4842372;29;20412;-85
2021/12/08 07:40:54;;;;;;;10.00;4.85;;;-13.40;99.90;;;;;;4842641;29;20410;-85
2021/12/08 07:43:25;;;;;;;8.25;4.70;;;-13.20;99.90;;;;;;4842794;29;20557;-85
2021/12/08 07:46:03;;;;;;;8.75;4.65;;;-13.10;99.90;;;;;;4842451;29;20422;-86
2021/12/08 07:48:42;;;;;;;8.13;4.57;;;-13.20;99.90;;;;;;4842376;29;20489;-87
2021/12/08 07:51:29;;;;;;;8.55;4.38;;;-13.10;99.90;;;;;;4842297;29;20882;-87
2021/12/08 07:53:58;;;;;;;8.65;4.43;;;-13.20;99.90;;;;;;4841055;29;20419;-86
2021/12/08 07:56:29;;;;;;;8.82;4.28;;;-13.10;99.90;;;;;;4841110;29;20505;-87
2021/12/08 07:59:00;;;;;;;8.48;4.53;;;-13.10;99.90;;;;;;4842216;29;20430;-86
2021/12/08 08:01:32;;;;;;;9.20;4.22;;;-13.00;99.90;;;;;;4842071;29;20454;-85
2021/12/08 08:04:02;;;;;;;9.02;4.70;;;-13.00;99.90;;;;;;4841960;29;20418;-86
2021/12/08 08:06:34;;;;;;;9.13;4.70;;;-13.00;99.90;;;;;;4841947;29;20410;-85
2021/12/08 08:09:07;;;;;;;9.98;5.05;;;-13.00;99.90;;;;;;4841785;29;20486;-85
2021/12/08 08:11:41;;;;;;;10.05;5.03;;;-12.90;99.90;;;;;;4841956;29;20771;-85
2021/12/08 08:14:15;;;;;;;9.40;5.22;;;-12.80;99.90;;;;;;4841877;29;20771;-85
2021/12/08 08:16:43;;;;;;;9.57;4.68;;;-12.80;99.90;;;;;;4842017;29;20897;-87
2021/12/08 08:19:15;;;;;;;10.02;5.32;;;-12.80;99.90;;;;;;4841310;29;20434;-86
2021/12/08 08:21:48;;;;;;;9.10;5.05;;;-12.80;99.90;;;;;;4841822;29;20536;-86
2021/12/08 08:24:17;;;;;;;9.52;5.15;;;-12.80;99.90;;;;;;4841706;29;20482;-85
2021/12/08 08:26:48;;;;;;;11.38;5.43;;;-12.70;99.90;;;;;;4841764;29;20413;-86
2021/12/08 08:29:17;;;;;;;9.88;5.10;;;-12.60;99.90;;;;;;4841603;29;20407;-86
2021/12/08 08:31:58;;;;;;;10.05;5.60;;;-12.60;99.90;;;;;;4840941;29;20399;-87
2021/12/08 08:34:30;;;;;;;9.98;5.30;;;-12.60;99.90;;;;;;4841708;29;20402;-87
2021/12/08 08:36:57;;;;;;;10.80;6.18;;;-12.70;99.90;;;;;;4841718;29;20489;-85
2021/12/08 08:39:29;;;;;;;13.25;6.53;;;-12.70;99.90;;;;;;4840563;29;20407;-86
2021/12/08 08:42:05;;;;;;;13.40;7.15;;;-12.70;99.90;;;;;;4841640;29;20407;-87
2021/12/08 08:44:42;;;;;;;12.85;7.22;;;-12.70;99.90;;;;;;4841396;29;20521;-86
2021/12/08 08:47:22;;;;;;;11.38;6.43;;;-12.70;99.90;;;;;;4841572;29;20481;-86
2021/12/08 08:49:51;;;;;;;13.05;6.93;;;-12.70;99.90;;;;;;4841611;29;20414;-86
2021/12/08 08:52:31;;;;;;;12.95;6.38;;;-12.80;99.90;;;;;;4840398;29;20416;-86
2021/12/08 08:55:04;;;;;;;10.68;6.15;;;-12.70;99.90;;;;;;4841471;29;20428;-86
2021/12/08 08:57:35;;;;;;;11.83;6.27;;;-12.60;99.90;;;;;;4841710;29;20398;-86
2021/12/08 09:00:19;;;;;;;17.20;7.67;;;-12.60;99.90;;;;;;4841415;29;20489;-85
2021/12/08 09:02:50;;;;;;;17.88;7.97;;;-12.60;99.90;;;;;;4841247;29;20403;-85
2021/12/08 09:05:51;;;;;;;17.70;8.33;;;-12.60;99.90;;;;;;4841329;29;20422;-85
2021/12/08 09:08:22;;;;;;;18.20;8.38;;;-12.50;99.90;;;;;;4836714;29;20432;-86
2021/12/08 09:11:10;;;;;;;21.17;9.23;;;-12.60;99.90;;;;;;4855302;29;20409;-87
2021/12/08 09:14:21;;;;;;;22.58;10.63;;;-12.70;99.90;;;;;;4840017;29;20417;-86
2021/12/08 09:16:54;;;;;;;21.55;10.02;;;-12.60;99.90;;;;;;4840240;29;20418;-85
2021/12/08 09:19:41;;;;;;;22.13;10.20;;;-12.50;99.90;;;;;;4840090;29;20445;-85
2021/12/08 09:22:40;;;;;;;22.33;9.98;;;-12.40;99.90;;;;;;4839884;29;20417;-86
2021/12/08 09:25:14;;;;;;;17.42;8.68;;;-12.40;99.90;;;;;;4841015;29;20441;-86
2021/12/08 09:27:48;;;;;;;17.55;7.90;;;-12.40;99.90;;;;;;4841057;29;20406;-86
2021/12/08 09:30:34;;;;;;;16.38;7.43;;;-12.40;99.90;;;;;;4841557;29;20398;-85
2021/12/08 09:33:08;;;;;;;12.43;6.18;;;-12.40;99.90;;;;;;4844808;29;20411;-86
2021/12/08 09:35:52;;;;;;;13.10;6.40;;;-12.40;99.90;;;;;;4844913;29;20421;-86
2021/12/08 09:38:26;;;;;;;11.38;5.35;;;-12.30;99.90;;;;;;4844884;29;20442;-86
2021/12/08 09:41:03;;;;;;;9.43;4.85;;;-12.20;99.90;;;;;;4844639;29;20407;-87
2021/12/08 09:43:39;;;;;;;10.30;5.15;;;-12.30;99.90;;;;;;4844626;29;20898;-85
2021/12/08 09:46:18;;;;;;;10.48;4.90;;;-12.20;99.90;;;;;;4844485;29;20422;-86
2021/12/08 09:48:48;;;;;;;9.10;4.47;;;-12.20;99.90;;;;;;4844535;29;20429;-86
2021/12/08 09:51:20;;;;;;;6.78;3.72;;;-12.20;99.90;;;;;;4844518;29;20490;-85
2021/12/08 09:53:48;;;;;;;9.23;3.88;;;-12.20;99.90;;;;;;4858683;29;20406;-87
2021/12/08 09:56:18;;;;;;;8.52;3.92;;;-12.30;99.90;;;;;;4844377;29;20417;-86
2021/12/08 09:58:47;;;;;;;10.15;4.65;;;-12.20;99.90;;;;;;4844372;29;20889;-87
2021/12/08 10:01:18;;;;;;;9.93;4.53;;;-12.20;99.90;;;;;;4844281;29;20906;-86
2021/12/08 10:03:49;;;;;;;9.85;4.55;;;-12.20;99.90;;;;;;4844315;29;20410;-87
2021/12/08 10:06:17;;;;;;;10.13;4.75;;;-12.10;99.90;;;;;;4844142;29;20567;-86
2021/12/08 10:08:49;;;;;;;11.13;4.72;;;-12.10;99.90;;;;;;4844475;29;20488;-86
2021/12/08 10:11:18;;;;;;;9.75;4.90;;;-11.90;99.90;;;;;;4844116;29;20402;-87
2021/12/08 10:13:46;;;;;;;10.68;5.07;;;-11.90;99.90;;;;;;4844237;29;20949;-86
2021/12/08 10:16:14;;;;;;;11.75;4.93;;;-11.80;99.90;;;;;;4858329;29;20411;-86
2021/12/08 10:18:43;;;;;;;11.20;5.13;;;-11.80;99.90;;;;;;4844344;29;20397;-85
2021/12/08 10:21:13;;;;;;;9.55;4.63;;;-11.70;99.90;;;;;;4842909;29;20410;-86
2021/12/08 10:23:46;;;;;;;10.15;4.70;;;-11.80;99.90;;;;;;4843020;29;20441;-87
2021/12/08 10:26:16;;;;;;;11.68;5.47;;;-11.80;99.90;;;;;;4843763;29;20924;-85
2021/12/08 10:28:49;;;;;;;11.13;5.30;;;-11.80;99.90;;;;;;4843897;29;20398;-85
2021/12/08 10:31:19;;;;;;;11.20;5.07;;;-11.70;99.90;;;;;;4842706;29;20411;-86
2021/12/08 10:34:01;;;;;;;10.45;4.57;;;-11.50;99.90;;;;;;4844165;29;20398;-87
2021/12/08 10:36:45;;;;;;;9.98;4.80;;;-11.60;99.90;;;;;;4843656;29;20778;-88
2021/12/08 10:39:33;;;;;;;10.55;4.78;;;-11.50;99.90;;;;;;4843641;29;20462;-87
2021/12/08 10:42:01;;;;;;;9.55;4.68;;;-11.40;99.90;;;;;;4843247;29;20478;-87
2021/12/08 10:45:22;;;;;;;11.15;5.03;;;-11.40;99.90;;;;;;4843535;29;20422;-87
2021/12/08 10:47:48;;;;;;;10.95;4.93;;;-11.30;99.90;;;;;;4843610;29;20467;-87
2021/12/08 10:56:04;;;;;;;13.55;5.55;;;-11.10;99.90;;;;;;4843713;29;20434;-87
2021/12/08 10:58:35;;;;;;;11.43;4.90;;;-11.10;99.90;;;;;;4843483;29;20402;-86
2021/12/08 11:01:16;;;;;;;8.53;4.20;;;-11.20;99.90;;;;;;4843388;29;20414;-87
2021/12/08 11:03:47;;;;;;;10.23;4.43;;;-11.20;99.90;;;;;;4843281;29;20494;-87
2021/12/08 11:06:17;;;;;;;10.82;5.32;;;-11.20;99.90;;;;;;4842078;29;20505;-87
2021/12/08 11:08:48;;;;;;;12.60;6.13;;;-11.20;99.90;;;;;;4842979;29;20426;-87
2021/12/08 11:11:32;;;;;;;12.10;5.60;;;-11.20;99.90;;;;;;4842170;29;21017;-86
2021/12/08 11:14:04;;;;;;;14.60;6.38;;;-11.10;99.90;;;;;;4843352;29;20429;-87
2021/12/08 11:16:33;;;;;;;13.68;6.70;;;-11.10;99.90;;;;;;4843275;29;20497;-87
2021/12/08 11:19:02;;;;;;;15.70;7.45;;;-11.00;99.90;;;;;;4842175;29;20402;-87
2021/12/08 11:21:38;;;;;;;11.18;5.10;;;-10.90;99.90;;;;;;4843058;29;20462;-85
2021/12/08 11:24:24;;;;;;;10.43;5.10;;;-10.90;99.90;;;;;;4842837;29;20443;-86
2021/12/08 11:26:53;;;;;;;8.38;4.40;;;-11.00;99.90;;;;;;4842774;29;20425;-85
2021/12/08 11:29:23;;;;;;;8.45;4.35;;;-10.90;99.90;;;;;;4841536;29;20801;-87
2021/12/08 11:32:00;;;;;;;7.15;3.83;;;-11.00;99.90;;;;;;4841820;29;20466;-87
2021/12/08 11:34:37;;;;;;;8.73;4.33;;;-11.00;99.90;;;;;;4842785;29;20815;-87
2021/12/08 11:37:08;;;;;;;8.73;4.33;;;-11.00;99.90;;;;;;4842674;29;20877;-86
2021/12/08 11:39:55;;;;;;;8.65;4.30;;;-10.90;99.90;;;;;;4842622;29;20798;-86
2021/12/08 11:42:26;;;;;;;9.35;4.40;;;-10.90;99.90;;;;;;4842601;29;20406;-87
2021/12/08 11:44:56;;;;;;;9.43;4.40;;;-10.80;99.90;;;;;;4841280;29;20451;-86
2021/12/08 11:47:34;;;;;;;10.20;4.95;;;-10.80;99.90;;;;;;4856775;29;20407;-87
2021/12/08 11:50:10;;;;;;;9.27;4.60;;;-10.70;99.90;;;;;;4842465;29;20459;-86
2021/12/08 11:52:38;;;;;;;8.93;4.60;;;-10.60;99.90;;;;;;4840750;29;20824;-87
2021/12/08 11:55:12;;;;;;;8.75;4.38;;;-10.50;99.90;;;;;;4842041;29;20436;-86
2021/12/08 11:57:47;;;;;;;9.50;4.65;;;-10.50;99.90;;;;;;4842878;29;20445;-87
2021/12/08 12:00:28;;;;;;;8.57;4.05;;;-10.50;99.90;;;;;;4842218;29;20485;-86
2021/12/08 12:03:05;;;;;;;7.90;4.17;;;-10.50;99.90;;;;;;4841357;29;20410;-84
2021/12/08 12:05:33;;;;;;;9.18;4.13;;;-10.40;99.90;;;;;;4842200;29;20511;-87
2021/12/08 12:08:04;;;;;;;9.18;4.70;;;-10.40;99.90;;;;;;4841861;29;20961;-87
2021/12/08 12:10:39;;;;;;;8.52;4.70;;;-10.30;99.90;;;;;;4842309;29;20753;-87
2021/12/08 12:13:11;;;;;;;7.78;4.47;;;-10.20;99.90;;;;;;4842070;29;20489;-86
2021/12/08 12:15:42;;;;;;;10.30;4.72;;;-10.20;99.90;;;;;;4840923;29;20413;-86
2021/12/08 12:18:10;;;;;;;9.30;4.60;;;-10.10;99.90;;;;;;4841974;29;20414;-85
2021/12/08 12:20:43;;;;;;;10.23;4.78;;;-10.10;99.90;;;;;;4842025;29;20411;-86
2021/12/08 12:23:29;;;;;;;8.00;4.33;;;-10.10;99.90;;;;;;4841761;29;20402;-86
2021/12/08 12:26:34;;;;;;;8.82;4.40;;;-10.10;99.90;;;;;;4825625;29;20449;-86
2021/12/08 12:29:14;;;;;;;7.20;3.90;;;-10.10;99.90;;;;;;4841685;29;20402;-86
2021/12/08 12:32:04;;;;;;;10.10;4.78;;;-10.20;99.90;;;;;;4841824;29;20501;-87
2021/12/08 12:34:38;;;;;;;10.70;4.65;;;-10.20;99.90;;;;;;4842010;29;20493;-87
2021/12/08 12:37:17;;;;;;;9.57;4.78;;;-10.20;99.90;;;;;;4841793;29;20407;-86
2021/12/08 12:39:49;;;;;;;10.05;5.35;;;-10.10;99.90;;;;;;4841748;29;20407;-86
2021/12/08 12:42:18;;;;;;;10.77;5.30;;;-10.10;99.90;;;;;;4840466;29;20471;-87
2021/12/08 12:45:07;;;;;;;13.07;4.97;;;-10.20;99.90;;;;;;4840699;29;20411;-87
2021/12/08 12:47:35;;;;;;;11.27;5.30;;;-10.20;99.90;;;;;;4840619;29;20403;-87
2021/12/08 12:50:24;;;;;;;12.40;6.25;;;-10.30;99.90;;;;;;4840414;29;20410;-86
2021/12/08 12:52:57;;;;;;;12.30;5.65;;;-10.40;99.90;;;;;;4840563;29;20890;-87
2021/12/08 12:55:38;;;;;;;14.98;6.20;;;-10.40;99.90;;;;;;4840532;29;20421;-86
2021/12/08 12:58:05;;;;;;;11.38;4.88;;;-10.60;99.90;;;;;;4840310;29;20485;-86
2021/12/08 13:00:37;;;;;;;9.10;4.03;;;-10.80;99.90;;;;;;4825169;29;20417;-87
2021/12/08 13:03:06;;;;;;;12.57;4.80;;;-10.80;99.90;;;;;;4825295;29;20464;-85
2021/12/08 13:05:52;;;;;;;11.07;4.50;;;-11.00;99.90;;;;;;4824937;29;20418;-85
2021/12/08 13:08:38;;;;;;;13.30;5.93;;;-11.00;99.90;;;;;;4855294;29;20418;-86
2021/12/08 13:11:46;;;;;;;13.55;6.07;;;-11.10;99.90;;;;;;4840246;29;20410;-87
2021/12/08 13:14:23;;;;;;;18.15;6.15;;;-11.10;99.90;;;;;;4812933;29;20414;-86
2021/12/08 13:17:19;;;;;;;15.23;6.13;;;-11.10;99.90;;;;;;4840167;29;20419;-86
2021/12/08 13:20:00;;;;;;;14.55;6.13;;;-11.10;99.90;;;;;;4840053;29;20562;-85
2021/12/08 13:22:47;;;;;;;12.48;5.43;;;-11.10;99.90;;;;;;4841220;29;20406;-86
2021/12/08 13:26:03;;;;;;;10.70;4.80;;;-11.10;99.90;;;;;;4840069;29;20413;-86
2021/12/08 13:28:38;;;;;;;10.88;4.57;;;-11.20;99.90;;;;;;4841065;29;20434;-86
2021/12/08 13:31:20;;;;;;;8.60;3.97;;;-11.40;99.90;;;;;;4841051;29;20402;-85
2021/12/08 13:34:01;;;;;;;9.65;4.25;;;-11.40;99.90;;;;;;4840988;29;20489;-84
2021/12/08 13:36:43;;;;;;;8.70;3.72;;;-11.40;99.90;;;;;;4841021;29;20491;-86
2021/12/08 13:39:28;;;;;;;8.20;3.90;;;-11.40;99.90;;;;;;4840930;29;20406;-87
2021/12/08 13:42:27;;;;;;;9.65;4.18;;;-11.50;99.90;;;;;;4840975;29;20410;-86
2021/12/08 13:44:57;;;;;;;9.88;4.10;;;-11.50;99.90;;;;;;4840977;29;20406;-86
2021/12/08 13:47:36;;;;;;;8.95;3.95;;;-11.40;99.90;;;;;;4840798;29;20424;-86
2021/12/08 13:50:09;;;;;;;8.90;4.28;;;-11.40;99.90;;;;;;4841206;29;20441;-87
2021/12/08 13:52:40;;;;;;;8.82;4.07;;;-11.40;99.90;;;;;;4840861;29;20426;-86
2021/12/08 13:55:08;;;;;;;7.95;3.55;;;-11.40;99.90;;;;;;4839621;29;20410;-86